Time;durP1;ratioP1;P1;durP2;ratioP2;P2;SDS_P1;SDS_P2;PMS_P1;PMS_P2;Temp;Humidity;BMP_temperature;BMP_pressure;BME280_temperature;BME280_humidity;BME280_pressure;Samples;Min_cycle;Max_cycle;Signal;HPM_P1;HPM_P2
2021/11/13 00:02:23;;;;;;;15.25;9.70;;;4.50;99.90;;;;;;5047812;28;20451;-59
2021/11/13 00:04:48;;;;;;;14.25;8.43;;;4.50;99.90;;;;;;5043215;28;20026;-58
2021/11/13 00:07:14;;;;;;;13.60;8.65;;;4.50;99.90;;;;;;5046898;28;20536;-60
2021/11/13 00:09:40;;;;;;;14.48;8.85;;;4.50;99.90;;;;;;5041593;28;20041;-57
2021/11/13 00:12:06;;;;;;;13.20;7.90;;;4.50;99.90;;;;;;5046193;28;20547;-57
2021/11/13 00:14:32;;;;;;;12.70;8.10;;;4.50;99.90;;;;;;5047112;28;20035;-58
2021/11/13 00:16:59;;;;;;;14.45;9.05;;;4.50;99.90;;;;;;5047607;28;20763;-58
2021/11/13 00:19:25;;;;;;;15.40;9.10;;;4.40;99.90;;;;;;5049647;28;20032;-57
2021/11/13 00:21:51;;;;;;;15.57;9.43;;;4.40;99.90;;;;;;5047196;28;20021;-58
2021/11/13 00:24:17;;;;;;;12.20;7.72;;;4.30;99.90;;;;;;5048763;28;20066;-58
2021/11/13 00:26:43;;;;;;;14.30;9.25;;;4.20;99.90;;;;;;5050671;28;20060;-59
2021/11/13 00:29:08;;;;;;;11.40;8.18;;;4.20;99.90;;;;;;5049781;28;20206;-58
2021/11/13 00:31:34;;;;;;;17.85;9.00;;;4.20;99.90;;;;;;5050695;28;20075;-58
2021/11/13 00:34:00;;;;;;;14.95;8.70;;;4.30;99.90;;;;;;5042975;28;20028;-59
2021/11/13 00:36:27;;;;;;;14.48;9.23;;;4.40;99.90;;;;;;5050831;28;20041;-59
2021/11/13 00:38:52;;;;;;;14.93;7.57;;;4.40;99.90;;;;;;5049604;28;20086;-59
2021/11/13 00:41:18;;;;;;;12.98;7.85;;;4.40;99.90;;;;;;5049750;28;20036;-59
2021/11/13 00:43:44;;;;;;;15.43;9.57;;;4.50;99.90;;;;;;5045524;28;20028;-57
2021/11/13 00:46:10;;;;;;;15.23;8.45;;;4.50;99.90;;;;;;5046390;28;20441;-53
2021/11/13 00:48:35;;;;;;;16.08;9.43;;;4.50;99.90;;;;;;5044499;28;20509;-60
2021/11/13 00:51:01;;;;;;;21.15;9.35;;;4.50;99.90;;;;;;5050098;28;20083;-60
2021/11/13 00:53:27;;;;;;;15.60;8.90;;;4.50;99.90;;;;;;5047010;28;20403;-61
2021/11/13 00:55:53;;;;;;;16.42;9.35;;;4.50;99.90;;;;;;5051068;28;20025;-61
2021/11/13 00:58:18;;;;;;;15.32;9.05;;;4.50;99.90;;;;;;5050849;28;20709;-58
2021/11/13 01:00:44;;;;;;;15.15;8.95;;;4.50;99.90;;;;;;5042753;28;20029;-58
2021/11/13 01:03:10;;;;;;;13.73;8.63;;;4.40;99.90;;;;;;5048703;28;20029;-57
2021/11/13 01:05:36;;;;;;;13.85;8.73;;;4.50;99.90;;;;;;5046115;28;20474;-57
2021/11/13 01:08:02;;;;;;;16.33;9.77;;;4.40;99.90;;;;;;5047575;28;20024;-60
2021/11/13 01:10:28;;;;;;;14.27;9.02;;;4.50;99.90;;;;;;5048269;28;20032;-60
2021/11/13 01:12:54;;;;;;;13.63;8.65;;;4.50;99.90;;;;;;5046320;28;20028;-57
2021/11/13 01:15:20;;;;;;;14.60;9.18;;;4.60;99.90;;;;;;5043535;28;20142;-59
2021/11/13 01:17:46;;;;;;;16.10;9.02;;;4.60;99.90;;;;;;5046040;28;20049;-58
2021/11/13 01:20:15;;;;;;;16.38;8.52;;;4.60;99.90;;;;;;5045893;28;20048;-57
2021/11/13 01:22:41;;;;;;;20.15;9.85;;;4.60;99.90;;;;;;5049968;28;20075;-59
2021/11/13 01:25:08;;;;;;;14.73;9.25;;;4.60;99.90;;;;;;5049847;28;20497;-59
2021/11/13 01:27:34;;;;;;;13.98;8.70;;;4.70;99.90;;;;;;5048085;28;20039;-57
2021/11/13 01:29:59;;;;;;;18.05;9.13;;;4.60;99.90;;;;;;5048478;28;20020;-58
2021/11/13 01:32:25;;;;;;;13.88;8.80;;;4.70;99.90;;;;;;5046861;28;20130;-60
2021/11/13 01:34:52;;;;;;;15.75;8.90;;;4.70;99.90;;;;;;5046540;28;20028;-57
2021/11/13 01:37:17;;;;;;;16.95;9.63;;;4.70;99.90;;;;;;5048747;28;20043;-58
2021/11/13 01:39:43;;;;;;;16.95;9.13;;;4.70;99.90;;;;;;5048993;28;20021;-59
2021/11/13 01:42:08;;;;;;;15.07;9.15;;;4.70;99.90;;;;;;5045313;28;20036;-58
2021/11/13 01:44:35;;;;;;;15.73;9.55;;;4.80;99.90;;;;;;5048172;28;20024;-56
2021/11/13 01:47:01;;;;;;;16.05;8.93;;;4.80;99.90;;;;;;5049325;28;20067;-60
2021/11/13 01:49:27;;;;;;;13.75;8.73;;;4.80;99.90;;;;;;5046355;28;20037;-59
2021/11/13 01:51:52;;;;;;;15.07;8.65;;;4.80;99.90;;;;;;5040467;28;20030;-57
2021/11/13 01:54:20;;;;;;;18.33;9.95;;;4.80;99.90;;;;;;5049025;28;20033;-57
2021/11/13 01:56:49;;;;;;;16.92;10.38;;;4.80;99.90;;;;;;5049047;28;20437;-58
2021/11/13 01:59:18;;;;;;;17.13;9.68;;;4.80;99.90;;;;;;5048713;28;20411;-57
2021/11/13 02:01:44;;;;;;;17.80;9.98;;;4.70;99.90;;;;;;5046469;28;20025;-59
2021/11/13 02:04:10;;;;;;;17.52;10.32;;;4.80;99.90;;;;;;5047562;28;20029;-59
2021/11/13 02:06:36;;;;;;;16.17;8.93;;;4.80;99.90;;;;;;5038502;28;20079;-57
2021/11/13 02:09:03;;;;;;;17.08;10.55;;;4.80;99.90;;;;;;5043227;28;20037;-58
2021/11/13 02:11:29;;;;;;;16.90;10.60;;;4.80;99.90;;;;;;5043828;28;20057;-56
2021/11/13 02:13:56;;;;;;;18.08;9.93;;;4.80;99.90;;;;;;5048880;28;20067;-56
2021/11/13 02:16:22;;;;;;;20.80;10.77;;;4.80;99.90;;;;;;5048926;28;20477;-60
2021/11/13 02:18:48;;;;;;;19.40;10.43;;;4.80;99.90;;;;;;5050270;28;20040;-59
2021/11/13 02:21:14;;;;;;;20.77;11.32;;;4.80;99.90;;;;;;5045816;28;20028;-51
2021/11/13 02:23:44;;;;;;;18.55;10.68;;;4.80;99.90;;;;;;5045017;28;20075;-60
2021/11/13 02:26:10;;;;;;;15.95;10.52;;;4.80;99.90;;;;;;5053554;28;20048;-57
2021/11/13 02:28:37;;;;;;;17.77;10.50;;;4.80;99.90;;;;;;5053326;28;20487;-60
2021/11/13 02:31:06;;;;;;;17.20;10.48;;;4.80;99.90;;;;;;5050629;28;20029;-59
2021/11/13 02:33:32;;;;;;;15.43;10.25;;;4.80;99.90;;;;;;5051061;28;20514;-60
2021/11/13 02:35:59;;;;;;;16.70;10.27;;;4.70;99.90;;;;;;5042954;28;20033;-60
2021/11/13 02:38:33;;;;;;;19.42;11.18;;;4.70;99.90;;;;;;5052444;28;20029;-60
2021/11/13 02:41:00;;;;;;;20.05;10.93;;;4.70;99.90;;;;;;5051032;28;20033;-60
2021/11/13 02:43:28;;;;;;;19.70;11.18;;;4.60;99.90;;;;;;5045515;28;20029;-61
2021/11/13 02:45:55;;;;;;;17.33;10.50;;;4.60;99.90;;;;;;5041046;28;20134;-60
2021/11/13 02:48:23;;;;;;;19.17;11.18;;;4.60;99.90;;;;;;5047293;28;20509;-60
2021/11/13 02:50:50;;;;;;;24.30;11.27;;;4.60;99.90;;;;;;5052552;28;20059;-60
2021/11/13 02:53:18;;;;;;;19.98;11.60;;;4.60;99.90;;;;;;5049305;28;20025;-60
2021/11/13 02:55:44;;;;;;;20.17;10.93;;;4.60;99.90;;;;;;5044749;28;20029;-61
2021/11/13 02:58:10;;;;;;;18.60;12.38;;;4.60;99.90;;;;;;5044946;28;20526;-57
2021/11/13 03:00:36;;;;;;;19.63;12.00;;;4.60;99.90;;;;;;5051071;28;20413;-59
2021/11/13 03:03:02;;;;;;;22.77;12.15;;;4.60;99.90;;;;;;5042334;28;20030;-60
2021/11/13 03:05:34;;;;;;;23.80;11.82;;;4.60;99.90;;;;;;5050005;28;20079;-50
2021/11/13 03:08:03;;;;;;;19.42;11.50;;;4.70;99.90;;;;;;5051678;28;20393;-60
2021/11/13 03:10:33;;;;;;;21.77;11.25;;;4.70;99.90;;;;;;5048717;28;20036;-60
2021/11/13 03:12:59;;;;;;;19.35;11.93;;;4.70;99.90;;;;;;5048758;28;20093;-57
2021/11/13 03:15:25;;;;;;;23.38;12.23;;;4.70;99.90;;;;;;5045948;28;20045;-54
2021/11/13 03:17:53;;;;;;;20.60;11.60;;;4.70;99.90;;;;;;5046473;28;20108;-60
2021/11/13 03:20:22;;;;;;;20.98;12.10;;;4.70;99.90;;;;;;5044360;28;20445;-60
2021/11/13 03:22:48;;;;;;;21.70;11.98;;;4.70;99.90;;;;;;5045670;28;20031;-60
2021/11/13 03:25:20;;;;;;;24.20;12.15;;;4.70;99.90;;;;;;5040398;28;20030;-60
2021/11/13 03:27:50;;;;;;;20.38;12.65;;;4.70;99.90;;;;;;5049225;28;20113;-56
2021/11/13 03:30:15;;;;;;;21.35;12.05;;;4.70;99.90;;;;;;5044511;28;20478;-58
2021/11/13 03:32:41;;;;;;;19.63;11.77;;;4.80;99.90;;;;;;5049731;28;20029;-58
2021/11/13 03:35:09;;;;;;;19.55;12.07;;;4.80;99.90;;;;;;5044805;28;20057;-59
2021/11/13 03:37:35;;;;;;;19.75;12.30;;;4.80;99.90;;;;;;5049013;28;20474;-59
2021/11/13 03:40:00;;;;;;;23.13;12.27;;;4.80;99.90;;;;;;5044315;28;20017;-61
2021/11/13 03:42:27;;;;;;;21.35;11.80;;;4.80;99.90;;;;;;5051792;28;20445;-61
2021/11/13 03:44:53;;;;;;;24.75;11.75;;;4.90;99.90;;;;;;5047604;28;20023;-60
2021/11/13 03:47:19;;;;;;;22.27;12.25;;;4.90;99.90;;;;;;5047923;28;20725;-58
2021/11/13 03:49:45;;;;;;;24.67;12.95;;;5.00;99.90;;;;;;5048676;28;20052;-59
2021/11/13 03:52:10;;;;;;;22.70;12.38;;;5.00;99.90;;;;;;5051523;28;20024;-58
2021/11/13 03:54:37;;;;;;;24.83;13.18;;;5.00;99.90;;;;;;5049771;28;20390;-59
2021/11/13 03:57:04;;;;;;;23.17;14.43;;;5.10;99.90;;;;;;5049598;28;20031;-59
2021/11/13 03:59:29;;;;;;;24.05;13.85;;;5.10;99.90;;;;;;5050591;28;20021;-51
2021/11/13 04:01:55;;;;;;;21.02;12.63;;;5.10;99.90;;;;;;5050571;28;20025;-56
2021/11/13 04:04:20;;;;;;;25.70;14.52;;;5.20;99.90;;;;;;5050885;28;20033;-60
2021/11/13 04:06:46;;;;;;;21.52;13.63;;;5.20;99.90;;;;;;5050315;28;20021;-59
2021/11/13 04:09:12;;;;;;;24.40;14.02;;;5.20;99.90;;;;;;5050060;28;20033;-57
2021/11/13 04:11:37;;;;;;;27.88;15.40;;;5.20;99.90;;;;;;5050398;28;20029;-58
2021/11/13 04:14:03;;;;;;;25.73;14.40;;;5.20;99.90;;;;;;5048502;28;20041;-61
2021/11/13 04:16:28;;;;;;;25.73;14.80;;;5.20;99.90;;;;;;5051267;28;20128;-56
2021/11/13 04:18:54;;;;;;;24.70;14.95;;;5.20;99.90;;;;;;5047993;28;20122;-59
2021/11/13 04:21:20;;;;;;;29.08;15.68;;;5.30;99.90;;;;;;5048689;28;20108;-58
2021/11/13 04:23:46;;;;;;;30.60;16.58;;;5.30;99.90;;;;;;5050299;28;20025;-60
2021/11/13 04:26:12;;;;;;;27.42;16.58;;;5.20;99.90;;;;;;5043246;28;20548;-60
2021/11/13 04:28:37;;;;;;;27.70;14.85;;;5.20;99.90;;;;;;5045701;28;20398;-59
2021/11/13 04:31:03;;;;;;;28.30;15.80;;;5.20;99.90;;;;;;5046511;28;20042;-58
2021/11/13 04:33:29;;;;;;;33.90;17.05;;;5.20;99.90;;;;;;5050344;28;20040;-53
2021/11/13 04:38:32;;;;;;;32.58;16.30;;;5.20;99.90;;;;;;5049218;28;20028;-58
2021/11/13 04:41:00;;;;;;;35.78;17.13;;;5.20;99.90;;;;;;5047179;28;20436;-58
2021/11/13 04:43:26;;;;;;;33.08;17.35;;;5.20;99.90;;;;;;5043035;28;20032;-59
2021/11/13 04:45:52;;;;;;;34.92;17.58;;;5.10;99.90;;;;;;5046942;28;20025;-58
2021/11/13 04:48:17;;;;;;;35.13;16.92;;;5.20;99.90;;;;;;5043623;28;20124;-59
2021/11/13 04:50:43;;;;;;;37.38;18.63;;;5.10;99.90;;;;;;5049762;28;20127;-58
2021/11/13 04:53:09;;;;;;;34.38;18.38;;;5.20;99.90;;;;;;5050262;28;20118;-58
2021/11/13 04:55:34;;;;;;;40.03;18.70;;;5.10;99.90;;;;;;5040880;28;20406;-59
2021/11/13 04:58:00;;;;;;;42.55;19.30;;;5.10;99.90;;;;;;5048932;28;20052;-59
2021/11/13 05:00:29;;;;;;;39.25;19.48;;;5.20;99.90;;;;;;5049345;28;20040;-57
2021/11/13 05:02:56;;;;;;;39.63;18.55;;;5.20;99.90;;;;;;5042920;28;20378;-56
2021/11/13 05:05:23;;;;;;;37.20;19.02;;;5.20;99.90;;;;;;5048345;28;20032;-59
2021/11/13 05:07:49;;;;;;;37.97;19.73;;;5.10;99.90;;;;;;5041092;28;20394;-59
2021/11/13 05:10:15;;;;;;;37.97;18.80;;;5.20;99.90;;;;;;5041046;28;20032;-59
2021/11/13 05:12:42;;;;;;;37.80;19.70;;;5.10;99.90;;;;;;5042282;28;20048;-58
2021/11/13 05:15:10;;;;;;;38.35;19.83;;;5.10;99.90;;;;;;5041741;28;20391;-57
2021/11/13 05:17:36;;;;;;;34.03;18.63;;;5.10;99.90;;;;;;5049471;28;20036;-57
2021/11/13 05:20:05;;;;;;;40.67;18.33;;;5.20;99.90;;;;;;5039918;28;20030;-60
2021/11/13 05:22:31;;;;;;;46.53;21.17;;;5.20;99.90;;;;;;5038577;28;20108;-60
2021/11/13 05:24:56;;;;;;;40.10;20.08;;;5.20;99.90;;;;;;5047074;28;21703;-60
2021/11/13 05:27:22;;;;;;;46.13;21.95;;;5.20;99.90;;;;;;5040332;28;20757;-60
2021/11/13 05:29:48;;;;;;;40.35;20.42;;;5.20;99.90;;;;;;5047288;28;20040;-58
2021/11/13 05:32:14;;;;;;;43.45;21.13;;;5.20;99.90;;;;;;5042344;28;20495;-61
2021/11/13 05:34:40;;;;;;;43.35;20.85;;;5.20;99.90;;;;;;5048793;28;20032;-60
2021/11/13 05:37:06;;;;;;;43.22;20.17;;;5.20;99.90;;;;;;5041404;28;20029;-58
2021/11/13 05:39:31;;;;;;;42.95;19.60;;;5.20;99.90;;;;;;5047883;28;20025;-55
2021/11/13 05:41:57;;;;;;;46.38;20.52;;;5.30;99.90;;;;;;5043414;28;20082;-59
2021/11/13 05:44:22;;;;;;;42.75;19.98;;;5.30;99.90;;;;;;5044461;28;20031;-60
2021/11/13 05:46:52;;;;;;;40.80;20.33;;;5.30;99.90;;;;;;5038977;28;20037;-59
2021/11/13 05:49:18;;;;;;;44.75;19.73;;;5.30;99.90;;;;;;5046318;28;20041;-59
2021/11/13 05:51:44;;;;;;;47.17;20.77;;;5.40;99.90;;;;;;5047758;28;20040;-58
2021/11/13 05:54:09;;;;;;;44.42;20.52;;;5.40;99.90;;;;;;5037126;28;20030;-60
2021/11/13 05:56:35;;;;;;;38.72;20.10;;;5.40;99.90;;;;;;5049117;28;20025;-59
2021/11/13 05:59:00;;;;;;;42.22;20.48;;;5.40;99.90;;;;;;5047524;28;20025;-60
2021/11/13 06:01:26;;;;;;;40.50;20.80;;;5.40;99.90;;;;;;5041250;28;20104;-60
2021/11/13 06:03:52;;;;;;;38.92;20.30;;;5.40;99.90;;;;;;5047670;28;20305;-59
2021/11/13 06:06:17;;;;;;;42.72;19.65;;;5.40;99.90;;;;;;5041844;28;20088;-60
2021/11/13 06:08:43;;;;;;;44.47;19.63;;;5.50;99.90;;;;;;5041372;28;20040;-58
2021/11/13 06:11:09;;;;;;;42.88;20.27;;;5.40;99.90;;;;;;5041325;28;20636;-59
2021/11/13 06:13:35;;;;;;;42.65;20.08;;;5.50;99.90;;;;;;5048697;28;20102;-57
2021/11/13 06:16:02;;;;;;;47.40;20.58;;;5.50;99.90;;;;;;5042007;28;20108;-58
2021/11/13 06:18:30;;;;;;;40.45;19.48;;;5.50;99.90;;;;;;5048750;28;20025;-61
2021/11/13 06:20:55;;;;;;;39.92;19.17;;;5.50;99.90;;;;;;5048541;28;20029;-58
2021/11/13 06:23:21;;;;;;;42.33;19.98;;;5.50;99.90;;;;;;5046877;28;20024;-60
2021/11/13 06:25:47;;;;;;;40.95;19.80;;;5.50;99.90;;;;;;5041991;28;20111;-61
2021/11/13 06:28:12;;;;;;;46.63;20.38;;;5.50;99.90;;;;;;5047461;28;20033;-58
2021/11/13 06:30:38;;;;;;;46.38;21.42;;;5.50;99.90;;;;;;5042286;28;20032;-58
2021/11/13 06:33:03;;;;;;;45.08;21.63;;;5.50;99.90;;;;;;5041254;28;20042;-58
2021/11/13 06:35:30;;;;;;;41.30;20.15;;;5.60;99.90;;;;;;5039129;28;20518;-59
2021/11/13 06:37:55;;;;;;;38.03;18.88;;;5.60;99.90;;;;;;5043143;28;20149;-59
2021/11/13 06:40:21;;;;;;;43.55;20.65;;;5.60;99.90;;;;;;5039204;28;20088;-59
2021/11/13 06:42:46;;;;;;;39.05;19.27;;;5.70;99.90;;;;;;5038851;28;20383;-60
2021/11/13 06:45:13;;;;;;;46.55;19.98;;;5.70;99.90;;;;;;5035975;28;20399;-61
2021/11/13 06:47:39;;;;;;;44.53;20.45;;;5.70;99.90;;;;;;5044557;28;20051;-55
2021/11/13 06:50:07;;;;;;;44.53;21.45;;;5.70;99.90;;;;;;5042906;28;20044;-60
2021/11/13 06:52:33;;;;;;;44.92;21.00;;;5.70;99.90;;;;;;5045942;28;20056;-57
2021/11/13 06:54:58;;;;;;;45.10;20.60;;;5.70;99.90;;;;;;5036185;28;20481;-59
2021/11/13 06:57:24;;;;;;;49.28;20.13;;;5.70;99.90;;;;;;5043264;28;20036;-60
2021/11/13 06:59:49;;;;;;;47.67;21.05;;;5.80;99.90;;;;;;5043804;28;20079;-60
2021/11/13 07:02:15;;;;;;;48.53;21.92;;;5.80;99.90;;;;;;5037893;28;20438;-60
2021/11/13 07:04:42;;;;;;;45.65;20.85;;;5.80;99.90;;;;;;5040051;28;20031;-61
2021/11/13 07:07:07;;;;;;;45.50;19.75;;;5.80;99.90;;;;;;5046824;28;20040;-60
2021/11/13 07:09:33;;;;;;;46.90;19.58;;;5.90;99.90;;;;;;5051511;28;20025;-59
2021/11/13 07:11:58;;;;;;;48.17;20.98;;;5.90;99.90;;;;;;5042572;28;20071;-61
2021/11/13 07:14:24;;;;;;;48.28;20.13;;;6.00;99.90;;;;;;5045778;28;20490;-58
2021/11/13 07:16:50;;;;;;;56.55;22.20;;;6.00;99.90;;;;;;5045412;28;20029;-61
2021/11/13 07:19:15;;;;;;;56.53;21.20;;;6.00;99.90;;;;;;5049436;28;20794;-57
2021/11/13 07:21:41;;;;;;;53.83;21.58;;;6.00;99.90;;;;;;5046754;28;20025;-60
2021/11/13 07:24:09;;;;;;;45.67;20.50;;;6.00;99.90;;;;;;5049241;28;20079;-60
2021/11/13 07:26:35;;;;;;;48.38;19.85;;;6.10;99.90;;;;;;5043741;28;20075;-61
2021/11/13 07:29:04;;;;;;;47.45;20.15;;;6.10;99.90;;;;;;5044636;28;20491;-60
2021/11/13 07:31:30;;;;;;;48.30;20.58;;;6.20;99.90;;;;;;5046945;28;20043;-55
2021/11/13 07:33:56;;;;;;;44.13;18.95;;;6.30;99.90;;;;;;5049341;28;20465;-59
2021/11/13 07:36:22;;;;;;;48.28;19.50;;;6.30;99.90;;;;;;5044003;28;20056;-60
2021/11/13 07:38:47;;;;;;;44.45;18.83;;;6.40;99.90;;;;;;5044039;28;20024;-59
2021/11/13 07:41:14;;;;;;;41.63;19.55;;;6.40;99.90;;;;;;5044350;28;20120;-59
2021/11/13 07:43:40;;;;;;;40.90;17.20;;;6.40;99.90;;;;;;5046659;28;20033;-61
2021/11/13 07:46:06;;;;;;;42.72;18.35;;;6.40;99.90;;;;;;5045182;28;20128;-60
2021/11/13 07:48:32;;;;;;;37.03;17.48;;;6.40;99.90;;;;;;5049838;28;20053;-58
2021/11/13 07:50:58;;;;;;;37.63;17.92;;;6.40;99.90;;;;;;5049381;28;20045;-62
2021/11/13 07:53:24;;;;;;;45.95;19.08;;;6.40;99.90;;;;;;5047896;28;20090;-60
2021/11/13 07:55:50;;;;;;;39.33;17.23;;;6.40;99.90;;;;;;5049034;28;20640;-59
2021/11/13 07:58:16;;;;;;;44.20;17.92;;;6.40;99.90;;;;;;5048212;28;20081;-59
2021/11/13 08:00:43;;;;;;;40.80;19.20;;;6.40;99.90;;;;;;5024708;28;20040;-58
2021/11/13 08:03:09;;;;;;;38.42;19.70;;;6.50;99.90;;;;;;5044272;28;20038;-59
2021/11/13 08:05:35;;;;;;;42.08;18.15;;;6.50;99.90;;;;;;5045691;28;20078;-58
2021/11/13 08:08:01;;;;;;;35.17;16.70;;;6.50;99.90;;;;;;5047516;28;20115;-58
2021/11/13 08:10:26;;;;;;;38.85;18.10;;;6.60;99.90;;;;;;5044164;28;20040;-58
2021/11/13 08:12:52;;;;;;;35.55;16.42;;;6.60;99.90;;;;;;5045022;28;20033;-50
2021/11/13 08:15:20;;;;;;;36.83;16.38;;;6.60;99.90;;;;;;5042078;28;20030;-60
2021/11/13 08:17:46;;;;;;;34.38;15.65;;;6.60;99.90;;;;;;5049603;28;20031;-60
2021/11/13 08:20:13;;;;;;;33.25;16.00;;;6.60;99.90;;;;;;5039822;28;20049;-61
2021/11/13 08:22:41;;;;;;;37.13;18.70;;;6.60;99.90;;;;;;5047290;28;20033;-61
2021/11/13 08:25:08;;;;;;;36.72;15.82;;;6.60;99.90;;;;;;5041743;28;20750;-60
2021/11/13 08:27:35;;;;;;;30.58;15.98;;;6.70;99.90;;;;;;5048266;28;20036;-61
2021/11/13 08:30:01;;;;;;;34.08;17.70;;;6.70;99.90;;;;;;5046564;28;20487;-61
2021/11/13 08:32:27;;;;;;;37.08;17.73;;;6.70;99.90;;;;;;5043722;28;20399;-58
2021/11/13 08:34:52;;;;;;;36.78;17.55;;;6.70;99.90;;;;;;5048379;28;20021;-60
2021/11/13 08:37:18;;;;;;;29.58;16.40;;;6.80;99.90;;;;;;5042191;28;20029;-58
2021/11/13 08:39:44;;;;;;;28.27;15.55;;;6.80;99.90;;;;;;5038308;28;20031;-61
2021/11/13 08:42:14;;;;;;;31.50;15.38;;;7.00;99.90;;;;;;5044712;28;20021;-59
2021/11/13 08:44:42;;;;;;;27.33;16.27;;;7.10;99.90;;;;;;5039566;28;20082;-58
2021/11/13 08:47:09;;;;;;;27.23;13.90;;;7.40;99.90;;;;;;5041812;28;20401;-59
2021/11/13 08:49:40;;;;;;;27.35;14.13;;;7.50;99.90;;;;;;5046374;28;20508;-60
2021/11/13 08:52:06;;;;;;;23.33;12.95;;;7.60;99.90;;;;;;5038996;28;20038;-60
2021/11/13 08:54:33;;;;;;;24.70;13.70;;;7.70;99.90;;;;;;5046152;28;20028;-59
2021/11/13 08:56:58;;;;;;;21.73;12.13;;;7.70;99.90;;;;;;5045485;28;20037;-61
2021/11/13 08:59:24;;;;;;;22.80;13.10;;;7.80;99.90;;;;;;5050037;28;20082;-61
2021/11/13 09:01:50;;;;;;;21.75;12.68;;;7.90;99.90;;;;;;5046773;28;20363;-58
2021/11/13 09:04:16;;;;;;;23.40;13.07;;;7.90;99.90;;;;;;5046235;28;20025;-60
2021/11/13 09:06:42;;;;;;;21.13;13.13;;;7.80;99.90;;;;;;5040059;28;20036;-58
2021/11/13 09:09:08;;;;;;;24.38;11.95;;;7.80;99.90;;;;;;5046283;28;20487;-60
2021/11/13 09:11:38;;;;;;;20.40;12.35;;;7.80;99.90;;;;;;5046229;28;20029;-58
2021/11/13 09:14:05;;;;;;;23.80;13.45;;;7.80;99.90;;;;;;5046687;28;20033;-60
2021/11/13 09:16:32;;;;;;;20.58;12.20;;;7.80;99.90;;;;;;5045474;28;20033;-59
2021/11/13 09:18:58;;;;;;;27.23;12.13;;;7.80;99.90;;;;;;5042410;28;20524;-60
2021/11/13 09:21:25;;;;;;;21.92;12.95;;;7.70;99.90;;;;;;5041027;28;20116;-60
2021/11/13 09:23:50;;;;;;;21.85;11.55;;;7.70;99.90;;;;;;5046018;28;20104;-60
2021/11/13 09:26:17;;;;;;;77.28;35.53;;;7.70;99.90;;;;;;5046369;28;20127;-60
2021/11/13 09:28:43;;;;;;;27.48;14.82;;;7.70;99.90;;;;;;5044448;28;20114;-59
2021/11/13 09:31:09;;;;;;;23.08;13.75;;;7.60;99.90;;;;;;5048710;28;20099;-59
2021/11/13 09:33:35;;;;;;;25.58;14.00;;;7.70;99.90;;;;;;5048937;28;20052;-59
2021/11/13 09:36:02;;;;;;;28.52;15.00;;;7.70;99.90;;;;;;5047455;28;20037;-60
2021/11/13 09:38:30;;;;;;;20.20;11.43;;;7.70;99.90;;;;;;5043413;28;20036;-61
2021/11/13 09:40:58;;;;;;;30.38;12.48;;;7.70;99.90;;;;;;5047112;28;20029;-62
2021/11/13 09:43:26;;;;;;;20.55;11.40;;;7.70;99.90;;;;;;5037996;28;20083;-61
2021/11/13 09:45:54;;;;;;;21.35;11.98;;;7.70;99.90;;;;;;5045400;28;20032;-60
2021/11/13 09:48:20;;;;;;;37.45;20.38;;;7.70;99.90;;;;;;5045794;28;20445;-61
2021/11/13 09:50:49;;;;;;;28.00;15.55;;;7.80;99.90;;;;;;5043137;28;20033;-61
2021/11/13 09:53:16;;;;;;;23.52;11.73;;;7.80;99.90;;;;;;5043985;28;20029;-59
2021/11/13 09:55:42;;;;;;;17.10;9.98;;;7.90;99.90;;;;;;5042188;28;20033;-59
2021/11/13 09:58:08;;;;;;;15.60;9.50;;;7.90;99.90;;;;;;5044756;28;20078;-58
2021/11/13 10:00:37;;;;;;;17.05;9.88;;;8.00;99.90;;;;;;5041023;28;21240;-58
2021/11/13 10:03:04;;;;;;;17.83;10.73;;;8.00;99.90;;;;;;5043583;28;20517;-59
2021/11/13 10:05:30;;;;;;;16.15;9.98;;;8.10;99.90;;;;;;5040422;28;20158;-60
2021/11/13 10:07:56;;;;;;;15.40;9.55;;;8.20;99.90;;;;;;5044314;28;20029;-61
2021/11/13 10:10:41;;;;;;;21.70;11.48;;;8.20;99.90;;;;;;5046180;28;20087;-60
2021/11/13 10:13:27;;;;;;;16.42;9.98;;;8.30;99.90;;;;;;5046638;28;20065;-55
2021/11/13 10:15:56;;;;;;;15.45;9.82;;;8.30;99.90;;;;;;5043878;28;20136;-61
2021/11/13 10:18:30;;;;;;;16.08;9.75;;;8.30;99.90;;;;;;5043714;28;20033;-57
2021/11/13 10:20:56;;;;;;;16.25;10.10;;;8.40;99.90;;;;;;5044883;28;20025;-59
2021/11/13 10:23:27;;;;;;;16.13;9.45;;;8.40;99.90;;;;;;5042995;28;20117;-59
2021/11/13 10:26:22;;;;;;;15.45;10.38;;;8.50;99.90;;;;;;5042756;28;20122;-60
2021/11/13 10:28:50;;;;;;;;;;;8.50;99.90;;;;;;5043888;28;20040;-57
2021/11/13 10:31:18;;;;;;;16.77;9.10;;;8.50;99.90;;;;;;5040490;28;19909;-61
2021/11/13 10:33:44;;;;;;;20.10;9.70;;;8.50;99.90;;;;;;5043263;28;20108;-59
2021/11/13 10:36:10;;;;;;;14.23;9.55;;;8.50;99.90;;;;;;5042852;28;20072;-60
2021/11/13 10:38:35;;;;;;;16.33;9.15;;;8.60;99.90;;;;;;5043934;28;20021;-58
2021/11/13 10:41:05;;;;;;;16.67;9.23;;;8.60;99.90;;;;;;5049350;28;20108;-58
2021/11/13 10:43:42;;;;;;;14.30;9.38;;;8.60;99.90;;;;;;5051525;28;20433;-55
2021/11/13 10:46:09;;;;;;;16.80;9.43;;;8.50;99.90;;;;;;5050682;28;20071;-58
2021/11/13 10:48:37;;;;;;;13.77;9.00;;;8.50;99.90;;;;;;5049686;28;20833;-59
2021/11/13 10:51:05;;;;;;;13.70;8.95;;;8.50;99.90;;;;;;5049878;28;20036;-60
2021/11/13 10:53:32;;;;;;;13.68;8.50;;;8.50;99.90;;;;;;5047268;28;20037;-58
2021/11/13 10:56:12;;;;;;;16.20;10.20;;;8.60;99.90;;;;;;5046194;28;20031;-60
2021/11/13 10:58:44;;;;;;;22.73;14.05;;;8.60;99.90;;;;;;5046810;28;20070;-58
2021/11/13 11:01:41;;;;;;;20.90;13.27;;;8.70;99.90;;;;;;5049933;28;20655;-58
2021/11/13 11:04:21;;;;;;;14.48;8.52;;;8.80;99.90;;;;;;5047026;28;20056;-59
2021/11/13 11:07:00;;;;;;;18.42;9.45;;;8.90;99.90;;;;;;5048591;28;20043;-58
2021/11/13 11:09:29;;;;;;;16.45;9.55;;;9.00;99.90;;;;;;5047820;28;20094;-61
2021/11/13 11:12:16;;;;;;;15.77;9.63;;;9.10;99.90;;;;;;5049003;28;20036;-58
2021/11/13 11:14:44;;;;;;;13.77;8.43;;;9.30;99.90;;;;;;5043899;28;20036;-59
2021/11/13 11:17:25;;;;;;;12.77;8.98;;;9.40;99.90;;;;;;5051475;28;20040;-62
2021/11/13 11:19:53;;;;;;;13.10;8.25;;;9.40;99.90;;;;;;5049756;28;20017;-61
2021/11/13 11:22:23;;;;;;;13.60;9.15;;;9.50;99.90;;;;;;5049680;28;20032;-60
2021/11/13 11:24:57;;;;;;;12.05;8.48;;;9.70;99.90;;;;;;5051848;28;20029;-60
2021/11/13 11:27:25;;;;;;;14.93;10.30;;;9.80;99.90;;;;;;5046237;28;20298;-60
2021/11/13 11:30:18;;;;;;;12.45;8.93;;;9.90;99.90;;;;;;5041538;28;20103;-60
2021/11/13 11:32:54;;;;;;;22.80;15.45;;;10.00;99.90;;;;;;5042763;28;20025;-61
2021/11/13 11:35:28;;;;;;;21.23;12.27;;;9.80;99.90;;;;;;5052100;28;20398;-59
2021/11/13 11:37:56;;;;;;;41.30;28.77;;;9.70;99.90;;;;;;5048140;28;20025;-60
2021/11/13 11:40:30;;;;;;;20.90;14.27;;;9.60;99.90;;;;;;5048282;28;20044;-60
2021/11/13 11:42:59;;;;;;;11.68;8.38;;;9.50;99.90;;;;;;5047809;28;20040;-60
2021/11/13 11:45:27;;;;;;;14.68;9.48;;;9.30;99.90;;;;;;5046070;28;20029;-58
2021/11/13 11:47:55;;;;;;;11.48;8.43;;;9.30;99.90;;;;;;5041397;28;20017;-60
2021/11/13 11:50:28;;;;;;;13.02;8.35;;;9.20;99.90;;;;;;5042753;28;20052;-61
2021/11/13 11:53:02;;;;;;;15.93;9.40;;;9.20;99.90;;;;;;5050987;28;20029;-59
2021/11/13 11:55:28;;;;;;;16.35;10.00;;;9.20;99.90;;;;;;5042930;28;20022;-55
2021/11/13 11:57:56;;;;;;;13.70;9.18;;;9.20;99.90;;;;;;5046350;28;20368;-60
2021/11/13 12:00:24;;;;;;;14.20;9.95;;;9.20;99.90;;;;;;5023248;28;20407;-59
2021/11/13 12:02:55;;;;;;;14.35;8.93;;;9.20;99.90;;;;;;5044348;28;20032;-61
2021/11/13 12:05:31;;;;;;;13.13;8.77;;;9.20;99.90;;;;;;5048222;28;20479;-61
2021/11/13 12:07:59;;;;;;;15.77;9.02;;;9.20;99.90;;;;;;5047081;28;20035;-59
2021/11/13 12:10:30;;;;;;;12.32;8.40;;;9.10;99.90;;;;;;5048425;28;20021;-59
2021/11/13 12:13:21;;;;;;;13.73;8.70;;;9.10;99.90;;;;;;5035926;28;20498;-60
2021/11/13 12:15:59;;;;;;;14.13;8.30;;;9.10;99.90;;;;;;5047754;28;20040;-59
2021/11/13 12:18:29;;;;;;;17.85;9.10;;;9.10;99.90;;;;;;5050081;28;20082;-60
2021/11/13 12:21:04;;;;;;;13.27;8.43;;;9.20;99.90;;;;;;5046321;28;20025;-61
2021/11/13 12:23:29;;;;;;;14.18;8.50;;;9.30;99.90;;;;;;5045022;28;20743;-60
2021/11/13 12:26:02;;;;;;;16.92;9.25;;;9.20;99.90;;;;;;5046771;28;20021;-57
2021/11/13 12:28:30;;;;;;;13.93;8.70;;;9.20;99.90;;;;;;5044828;28;20032;-61
2021/11/13 12:31:06;;;;;;;14.65;8.93;;;9.20;99.90;;;;;;5033446;28;20517;-61
2021/11/13 12:33:32;;;;;;;13.05;8.48;;;9.20;99.90;;;;;;5043657;28;20029;-54
2021/11/13 12:36:02;;;;;;;12.23;8.07;;;9.20;99.90;;;;;;5044980;28;20095;-58
2021/11/13 12:38:31;;;;;;;17.20;7.68;;;9.30;99.90;;;;;;5045471;28;20457;-57
2021/11/13 12:41:25;;;;;;;11.57;8.07;;;9.30;99.90;;;;;;5041995;28;20021;-61
2021/11/13 12:43:58;;;;;;;14.65;9.25;;;9.30;99.90;;;;;;5017634;28;20069;-60
2021/11/13 12:46:37;;;;;;;13.27;8.05;;;9.30;99.90;;;;;;5043225;28;20036;-58